Etusivu
METAR-TAF:

METAR-TAF

Lentoasemat :

Tripoli, Libya

Mitiga International Airport

Leveyspiiri: 32-54N, Pituuspiiri: 13-17E, korkeus merenpinnasta: 11 m

Tämänhetkinen sää

Tämä raportti tehtiin 52 minuuttia sitten, kello 05.50 UTC
Lämpötila 17°C
Kosteus 82%
Ilmanpaine 1018 hPa
Näkyvyys: 5000 m
Hajanaisia pilviä 2500 ft:n korkeudessa
utua

METAR: HLLM 200550Z 05007KLT 5000 BR SCT025 17/14 Q1018

Aika: 08:42 (06:42 UTC)

Sääennuste

Tämä raportti tehtiin 13 tuntia ja 42 minuuttia sitten, kello 17.00 UTC
Ennuste voimassa 19. päivästä klo 18 UTC - 20. päivään klo 18 UTC
Tuuli 12 kn idästä/koillisesta
Näkyvyys: 8000 m
Muutamia pilviä 1800 ft:n korkeudessa
Hajanaisia pilviä 2500 ft:n korkeudessa
Todennäköisyys 40% :
Ajoittain
09. päivästä klo 21 UTC - 20. päivään klo 00 UTC
Näkyvyys: 0800 m
Hajonneita pilviä 1000 ft:n korkeudessa

TAF: HLLM 191700Z 1918/2018 06012KT 8000 FEW018 SCT025 PROB40 TEMPO 0921/20008 0800 BKN010

Säähavainnot ja -ennusteet yli 4000 lentoasemalta (METAR- ja TAF-raportit).

Käytössä olevat sääasemat on merkitty karttaan keltaisilla ja punaisilla pisteillä.

Aseta hiiri pisteen päälle nähdäksesi sääaseman nimen.

Klikkaa sitten nähdäksesi säähavainnot ja -ennusteet.

Kartan vaihtaminen: klikkaa mustalla rastilla varustettuja vihreitä pisteitä, niin voit zoomata sisään; viivalla varustettua vihreää pistettä, niin voit zoomata ulos tai vihreitä nuolia, niin pääset viereisille kartoille.


METAR-TAF: